Time;durP1;ratioP1;P1;durP2;ratioP2;P2;SDS_P1;SDS_P2;PMS_P1;PMS_P2;Temp;Humidity;BMP_temperature;BMP_pressure;BME280_temperature;BME280_humidity;BME280_pressure;Samples;Min_cycle;Max_cycle;Signal;HPM_P1;HPM_P2
2022/05/19 00:01:39;;;;;;;0.98;0.47;;;;;;;12.01;49.68;101117.59;4369380;32;32090;-85
2022/05/19 00:04:07;;;;;;;0.57;0.45;;;;;;;12.22;48.48;101120.50;4375552;32;33519;-85
2022/05/19 00:06:35;;;;;;;0.73;0.50;;;;;;;12.03;49.22;101120.19;4356841;32;33170;-85
2022/05/19 00:09:03;;;;;;;2.92;0.40;;;;;;;12.02;49.17;101115.81;4363138;32;33343;-84
2022/05/19 00:11:32;;;;;;;2.90;0.85;;;;;;;11.96;48.99;101116.84;4368311;32;34230;-85
2022/05/19 00:14:00;;;;;;;1.30;0.40;;;;;;;12.14;48.37;101125.16;4356433;32;33721;-85
2022/05/19 00:16:36;;;;;;;0.57;0.45;;;;;;;11.67;49.98;101124.66;4374828;32;34500;-84
2022/05/19 00:19:04;;;;;;;0.57;0.30;;;;;;;11.90;49.27;101122.28;4376195;32;33664;-85
2022/05/19 00:21:32;;;;;;;0.90;0.52;;;;;;;11.79;49.71;101125.22;4375053;32;33625;-85
2022/05/19 00:24:00;;;;;;;1.25;0.45;;;;;;;11.58;50.37;101120.50;4374930;32;33921;-85
2022/05/19 00:26:28;;;;;;;4.12;0.60;;;;;;;11.67;50.71;101124.66;4374846;32;34373;-85
2022/05/19 00:28:57;;;;;;;1.12;0.70;;;;;;;11.75;50.38;101120.91;4362464;32;33770;-85
2022/05/19 00:31:26;;;;;;;2.12;0.52;;;;;;;11.68;50.70;101129.03;4350392;32;32839;-85
2022/05/19 00:33:54;;;;;;;2.35;1.23;;;;;;;11.63;51.08;101123.00;4362562;32;33638;-85
2022/05/19 00:36:22;;;;;;;0.93;0.50;;;;;;;11.83;50.35;101123.41;4373608;32;34791;-84
2022/05/19 00:38:50;;;;;;;0.32;0.32;;;;;;;11.69;50.70;101128.16;4362266;32;33350;-84
2022/05/19 00:41:18;;;;;;;0.32;0.32;;;;;;;11.51;51.25;101125.09;4375518;32;33131;-84
2022/05/19 00:44:02;;;;;;;0.43;0.30;;;;;;;11.59;50.68;101124.91;4379589;32;34577;-85
2022/05/19 00:46:44;;;;;;;1.58;0.50;;;;;;;11.51;50.21;101122.44;4358515;32;33296;-85
2022/05/19 00:49:19;;;;;;;0.75;0.35;;;;;;;11.41;50.98;101126.25;4361112;32;32757;-85
2022/05/19 00:51:52;;;;;;;1.12;0.60;;;;;;;11.43;50.85;101121.78;4359744;32;33063;-85
2022/05/19 00:54:25;;;;;;;1.42;0.50;;;;;;;11.51;50.33;101124.22;4347526;32;34518;-84
2022/05/19 00:56:56;;;;;;;10.27;1.15;;;;;;;11.50;50.03;101117.22;4347714;32;33784;-84
2022/05/19 00:59:45;;;;;;;0.50;0.40;;;;;;;11.46;50.29;101121.69;4359799;32;33429;-83
2022/05/19 01:02:16;;;;;;;2.37;0.40;;;;;;;11.45;50.17;101121.75;4346636;32;33643;-82
2022/05/19 01:04:51;;;;;;;2.35;0.30;;;;;;;11.39;50.13;101112.19;4354488;32;33268;-82
2022/05/19 01:07:24;;;;;;;0.70;0.45;;;;;;;11.41;49.90;101110.38;4341014;32;32837;-82
2022/05/19 01:09:52;;;;;;;0.73;0.35;;;;;;;11.49;49.37;101116.34;4359758;32;33145;-83
2022/05/19 01:12:21;;;;;;;0.82;0.40;;;;;;;11.25;50.49;101122.25;4348616;32;34702;-82
2022/05/19 01:14:49;;;;;;;1.87;0.40;;;;;;;11.26;50.72;101124.00;4361071;32;33726;-83
2022/05/19 01:17:16;;;;;;;1.23;0.75;;;;;;;11.32;50.46;101118.53;4348246;32;33758;-82
2022/05/19 01:19:47;;;;;;;0.70;0.40;;;;;;;11.23;50.87;101118.78;4349091;32;33238;-82
2022/05/19 01:22:42;;;;;;;0.40;0.27;;;;;;;11.11;51.28;101119.06;4338018;32;32916;-83
2022/05/19 01:25:18;;;;;;;3.25;0.60;;;;;;;10.99;52.01;101128.19;4361626;32;33892;-82
2022/05/19 01:27:47;;;;;;;1.20;0.52;;;;;;;11.15;51.73;101118.09;4360793;32;34409;-83
2022/05/19 01:30:16;;;;;;;0.40;0.37;;;;;;;11.12;51.55;101115.56;4356761;32;33259;-83
2022/05/19 01:32:44;;;;;;;1.77;0.65;;;;;;;11.05;52.11;101124.53;4330621;32;33686;-82
2022/05/19 01:35:12;;;;;;;0.68;0.50;;;;;;;11.02;52.35;101121.06;4331591;32;32546;-83
2022/05/19 01:37:41;;;;;;;0.73;0.40;;;;;;;11.07;52.33;101113.03;4352387;32;33050;-82
2022/05/19 01:40:45;;;;;;;1.25;0.40;;;;;;;10.90;53.05;101115.19;4354648;32;33223;-82
2022/05/19 01:43:29;;;;;;;1.10;0.50;;;;;;;10.97;52.45;101117.66;4340550;32;34373;-83
2022/05/19 01:46:06;;;;;;;0.68;0.45;;;;;;;10.92;51.71;101116.00;4355853;32;33330;-83
2022/05/19 01:48:37;;;;;;;0.85;0.40;;;;;;;10.97;51.07;101116.81;4361821;32;35270;-84
2022/05/19 01:51:12;;;;;;;1.75;0.45;;;;;;;10.99;51.13;101117.63;4363480;32;33383;-87
2022/05/19 01:53:47;;;;;;;0.50;0.40;;;;;;;10.97;51.06;101116.81;4344113;32;33258;-86
2022/05/19 01:56:46;;;;;;;0.82;0.43;;;;;;;10.78;51.81;101116.38;4369010;32;34384;-86
2022/05/19 01:59:29;;;;;;;2.75;0.55;;;;;;;10.64;51.72;101123.75;4365273;32;33980;-88
2022/05/19 02:01:59;;;;;;;0.75;0.50;;;;;;;10.63;51.40;101127.25;4349881;32;33817;-85
2022/05/19 02:04:37;;;;;;;0.77;0.50;;;;;;;10.69;52.48;101127.16;4355694;32;34073;-84
2022/05/19 02:07:08;;;;;;;1.35;0.47;;;;;;;10.70;51.67;101132.37;4338714;32;33316;-86
2022/05/19 02:09:40;;;;;;;1.55;0.52;;;;;;;10.78;51.71;101137.50;4350171;32;34065;-85
2022/05/19 02:12:09;;;;;;;0.52;0.37;;;;;;;10.68;51.35;101130.66;4358592;32;33325;-84
2022/05/19 02:14:43;;;;;;;1.92;0.80;;;;;;;10.75;51.53;101134.91;4344607;32;32642;-86
2022/05/19 02:17:13;;;;;;;2.10;0.60;;;;;;;10.73;51.15;101124.41;4338413;32;32971;-84
2022/05/19 02:19:43;;;;;;;0.37;0.30;;;;;;;10.72;50.88;101132.34;4349949;32;33782;-86
2022/05/19 02:22:16;;;;;;;1.12;0.70;;;;;;;10.81;50.26;101129.50;4349996;32;33505;-84
2022/05/19 02:24:58;;;;;;;3.55;0.40;;;;;;;10.74;50.29;101120.84;4349482;32;33200;-84
2022/05/19 02:27:48;;;;;;;0.62;0.62;;;;;;;10.73;50.68;101139.38;4352738;32;33859;-83
2022/05/19 02:30:20;;;;;;;1.85;0.40;;;;;;;10.75;50.45;101132.28;4363243;32;34373;-85
2022/05/19 02:32:48;;;;;;;0.30;0.30;;;;;;;10.84;49.96;101131.19;4351572;32;33081;-84
2022/05/19 02:35:16;;;;;;;0.62;0.50;;;;;;;10.54;51.07;101135.41;4347163;32;33540;-85
2022/05/19 02:37:51;;;;;;;1.70;0.80;;;;;;;10.52;51.85;101138.06;4352460;32;35290;-83
2022/05/19 02:40:21;;;;;;;0.77;0.45;;;;;;;10.60;51.49;101151.13;4363182;32;34196;-83
2022/05/19 02:42:50;;;;;;;0.65;0.28;;;;;;;10.51;51.33;101153.06;4362287;32;33553;-83
2022/05/19 02:45:20;;;;;;;0.75;0.52;;;;;;;10.36;51.22;101149.88;4343213;32;33278;-85
2022/05/19 02:47:50;;;;;;;0.68;0.30;;;;;;;10.40;52.07;101151.56;4351302;32;34075;-85
2022/05/19 02:50:20;;;;;;;1.17;0.30;;;;;;;10.21;52.58;101157.19;4349556;32;34198;-86
2022/05/19 02:52:48;;;;;;;1.67;0.50;;;;;;;10.24;52.22;101156.28;4336623;32;32542;-86
2022/05/19 02:55:17;;;;;;;2.45;0.70;;;;;;;10.30;52.42;101153.50;4362837;32;32908;-85
2022/05/19 02:57:48;;;;;;;0.40;0.40;;;;;;;10.35;52.07;101158.69;4363680;32;33503;-86
2022/05/19 03:00:20;;;;;;;2.20;0.60;;;;;;;10.36;51.98;101155.16;4349157;32;33780;-87
2022/05/19 03:02:49;;;;;;;1.17;0.57;;;;;;;10.24;52.62;101156.28;4360831;32;33563;-86
2022/05/19 03:05:21;;;;;;;1.23;0.50;;;;;;;10.24;52.34;101161.56;4342891;32;32776;-86
2022/05/19 03:07:49;;;;;;;1.85;0.40;;;;;;;10.19;52.57;101152.84;4360578;32;33331;-86
2022/05/19 03:10:17;;;;;;;1.45;0.98;;;;;;;9.98;53.81;101165.56;4362374;32;33794;-86
2022/05/19 03:12:45;;;;;;;0.80;0.70;;;;;;;9.98;53.38;101162.94;4363410;32;34179;-86
2022/05/19 03:15:13;;;;;;;4.57;0.55;;;;;;;9.94;53.69;101169.16;4368433;32;33817;-86
2022/05/19 03:17:43;;;;;;;1.92;0.50;;;;;;;10.10;53.71;101163.56;4363263;32;31716;-86
2022/05/19 03:20:12;;;;;;;2.67;0.30;;;;;;;10.01;54.20;101161.97;4363560;32;33037;-86
2022/05/19 03:22:40;;;;;;;4.97;1.67;;;;;;;9.85;54.77;101153.50;4351169;32;33878;-87
2022/05/19 03:25:09;;;;;;;1.12;0.40;;;;;;;9.83;55.01;101163.22;4350703;32;33153;-86
2022/05/19 03:27:37;;;;;;;1.92;0.50;;;;;;;9.87;54.57;101164.88;4351274;32;32750;-86
2022/05/19 03:30:13;;;;;;;0.88;0.50;;;;;;;9.91;54.80;101163.94;4362966;32;33833;-88
2022/05/19 03:32:41;;;;;;;0.82;0.43;;;;;;;9.96;54.27;101166.47;4375674;32;33991;-88
2022/05/19 03:35:11;;;;;;;0.50;0.50;;;;;;;10.16;53.98;101171.38;4363397;32;35287;-88
2022/05/19 03:37:44;;;;;;;0.70;0.50;;;;;;;10.09;54.21;101175.03;4363318;32;33940;-88
2022/05/19 03:40:16;;;;;;;0.90;0.35;;;;;;;10.18;54.12;101181.00;4363274;32;33880;-88
2022/05/19 03:42:45;;;;;;;4.37;0.90;;;;;;;10.48;53.50;101184.81;4375666;32;32991;-86
2022/05/19 03:45:14;;;;;;;3.58;1.20;;;;;;;10.28;54.17;101189.63;4375099;32;33954;-86
2022/05/19 03:47:45;;;;;;;1.70;1.07;;;;;;;10.20;55.11;101181.81;4351605;32;32694;-86
2022/05/19 03:50:14;;;;;;;3.78;0.98;;;;;;;10.32;55.22;101180.75;4362627;32;34753;-86
2022/05/19 03:52:44;;;;;;;2.45;1.40;;;;;;;10.08;55.97;101181.22;4375581;32;33389;-87
2022/05/19 03:55:13;;;;;;;2.95;1.10;;;;;;;10.40;54.90;101186.75;4363025;32;34787;-87
2022/05/19 03:57:43;;;;;;;1.92;0.98;;;;;;;10.41;55.00;101184.97;4350803;32;33730;-86
2022/05/19 04:00:12;;;;;;;5.03;1.15;;;;;;;10.52;55.07;101183.84;4377381;32;34182;-94
2022/05/19 04:03:04;;;;;;;2.15;1.02;;;;;;;10.64;54.79;101187.13;4324797;33;32557;-93
2022/05/19 04:05:46;;;;;;;4.05;1.40;;;;;;;10.91;54.42;101186.50;4355517;32;33118;-94
2022/05/19 04:08:38;;;;;;;0.85;0.60;;;;;;;11.00;54.50;101193.34;4346782;32;33108;-93
2022/05/19 04:11:18;;;;;;;1.85;0.90;;;;;;;11.22;53.97;101196.37;4335423;33;33737;-93
2022/05/19 04:14:12;;;;;;;1.20;0.90;;;;;;;11.60;52.43;101183.97;4348742;32;33326;-93
2022/05/19 04:16:53;;;;;;;3.30;0.88;;;;;;;11.75;52.42;101194.13;4352743;32;34476;-93
2022/05/19 04:19:46;;;;;;;3.22;0.80;;;;;;;12.08;51.26;101189.75;4360402;32;32725;-92
2022/05/19 04:22:25;;;;;;;4.93;1.27;;;;;;;12.11;50.66;101192.31;4331843;33;33327;-93
2022/05/19 04:25:17;;;;;;;3.47;1.40;;;;;;;12.40;50.43;101195.91;4337596;33;32748;-91
2022/05/19 04:27:59;;;;;;;1.45;0.70;;;;;;;12.45;50.54;101205.47;4356428;32;33227;-92
2022/05/19 04:30:41;;;;;;;2.65;0.75;;;;;;;12.67;49.79;101210.13;4332709;33;33759;-91
2022/05/19 04:33:34;;;;;;;6.57;1.10;;;;;;;12.91;46.33;101206.72;4330622;33;33641;-92
2022/05/19 04:36:14;;;;;;;1.48;0.75;;;;;;;12.70;49.34;101194.13;4318644;33;32856;-92
2022/05/19 04:39:06;;;;;;;1.45;0.75;;;;;;;12.96;48.37;101202.16;4347673;32;32797;-91
2022/05/19 04:41:46;;;;;;;4.28;0.82;;;;;;;13.29;46.71;101200.25;4332480;32;33738;-92
2022/05/19 04:44:40;;;;;;;4.75;1.00;;;;;;;13.65;46.65;101191.97;4326348;33;33905;-84
2022/05/19 04:47:07;;;;;;;1.98;0.82;;;;;;;13.63;46.98;101192.97;4332974;33;33592;-84
2022/05/19 04:49:36;;;;;;;1.62;0.55;;;;;;;13.49;47.30;101196.94;4322599;33;33789;-85
2022/05/19 04:52:09;;;;;;;5.62;1.05;;;;;;;13.76;46.26;101194.25;4326314;33;32877;-84
2022/05/19 04:54:39;;;;;;;1.55;0.88;;;;;;;13.61;45.66;101192.13;4323624;33;34280;-86
2022/05/19 04:57:10;;;;;;;;;;;;;;;13.71;45.41;101190.88;4336437;33;31385;-87
2022/05/19 04:59:41;;;;;;;3.60;1.08;;;;;;;14.02;45.52;101191.56;4312557;33;32933;-86
2022/05/19 05:02:14;;;;;;;2.10;1.02;;;;;;;14.54;44.22;101194.97;4336253;33;32669;-86
2022/05/19 05:04:42;;;;;;;4.82;2.12;;;;;;;14.60;44.64;101189.41;4320771;33;34148;-85
2022/05/19 05:07:10;;;;;;;4.60;0.80;;;;;;;14.66;45.50;101195.44;4324652;33;34035;-86
2022/05/19 05:09:41;;;;;;;2.80;1.45;;;;;;;14.60;45.58;101193.88;4335860;33;32957;-86
2022/05/19 05:12:11;;;;;;;4.18;1.33;;;;;;;14.81;43.95;101195.72;4335455;33;34754;-85
2022/05/19 05:14:40;;;;;;;3.22;0.52;;;;;;;15.10;43.20;101186.59;4322176;33;33344;-85
2022/05/19 05:17:16;;;;;;;5.60;1.85;;;;;;;15.32;41.46;101194.53;4324131;33;32570;-86
2022/05/19 05:19:44;;;;;;;2.15;1.40;;;;;;;15.45;42.05;101194.03;4322910;33;34001;-86
2022/05/19 05:22:15;;;;;;;5.47;0.93;;;;;;;15.54;41.43;101197.19;4334631;33;32601;-86
2022/05/19 05:24:45;;;;;;;1.33;0.65;;;;;;;15.54;42.70;101196.31;4335352;33;33407;-86
2022/05/19 05:27:15;;;;;;;6.37;1.45;;;;;;;15.71;41.42;101187.62;4338057;33;33513;-88
2022/05/19 05:29:45;;;;;;;2.50;0.70;;;;;;;15.84;41.74;101197.69;4334035;33;33135;-88
2022/05/19 05:32:14;;;;;;;0.90;0.70;;;;;;;15.85;42.24;101199.41;4335724;33;33568;-88
2022/05/19 05:34:42;;;;;;;3.87;1.08;;;;;;;16.06;41.30;101199.44;4323176;33;33060;-88
2022/05/19 05:41:35;;;;;;;4.05;0.98;;;;;;;16.20;42.23;101204.16;4229291;33;33626;-86
2022/05/19 05:44:15;;;;;;;1.75;1.30;;;;;;;17.67;38.98;101195.34;4496857;31;247757;-86
2022/05/19 05:46:45;;;;;;;6.43;2.30;;;;;;;17.67;38.98;101195.34;4492407;31;32368;-86
2022/05/19 05:49:14;;;;;;;6.03;3.00;;;;;;;17.23;37.31;101202.87;4485342;31;33515;-87
2022/05/19 05:51:43;;;;;;;11.45;2.33;;;;;;;17.29;37.74;101210.63;4483797;31;33178;-85
2022/05/19 05:54:21;;;;;;;3.60;2.30;;;;;;;17.00;39.20;101207.56;4503535;31;34216;-85
2022/05/19 05:56:54;;;;;;;7.28;3.37;;;;;;;17.61;37.73;101209.87;4491073;31;32656;-85
2022/05/19 05:59:23;;;;;;;5.28;3.40;;;;;;;17.70;38.06;101202.31;4488375;31;33638;-86
2022/05/19 06:01:52;;;;;;;7.28;3.00;;;;;;;17.82;36.33;101207.09;4475461;31;33032;-85
2022/05/19 06:04:22;;;;;;;6.00;3.25;;;;;;;17.98;37.76;101207.13;4497741;31;35569;-87
2022/05/19 06:06:51;;;;;;;5.20;3.00;;;;;;;17.69;37.69;101206.81;4486319;31;32076;-85
2022/05/19 06:09:22;;;;;;;6.28;3.90;;;;;;;17.94;37.41;101201.09;4491866;31;33204;-85
2022/05/19 06:11:51;;;;;;;6.97;2.87;;;;;;;18.45;37.31;101199.25;4488391;31;33354;-86
2022/05/19 06:14:19;;;;;;;4.80;2.85;;;;;;;18.75;38.02;101193.19;4503716;31;33464;-85
2022/05/19 06:16:48;;;;;;;9.35;2.97;;;;;;;19.17;35.90;101185.41;4487552;31;32342;-85
2022/05/19 06:19:18;;;;;;;4.97;2.30;;;;;;;19.25;35.15;101200.19;4490520;31;33110;-85
2022/05/19 06:21:49;;;;;;;5.12;2.20;;;;;;;19.44;36.75;101192.81;4482022;31;33053;-85
2022/05/19 06:24:19;;;;;;;4.85;2.35;;;;;;;19.30;35.98;101192.75;4498402;31;33947;-85
2022/05/19 06:26:48;;;;;;;4.30;2.25;;;;;;;19.60;34.51;101185.63;4489566;31;33770;-85
2022/05/19 06:29:16;;;;;;;3.50;2.47;;;;;;;19.80;35.59;101194.31;4502218;31;34519;-87
2022/05/19 06:31:44;;;;;;;6.22;2.92;;;;;;;20.23;33.69;101197.06;4478879;31;33897;-87
2022/05/19 06:34:15;;;;;;;3.85;2.58;;;;;;;20.11;35.86;101194.16;4489690;31;33467;-87
2022/05/19 06:36:47;;;;;;;3.75;2.72;;;;;;;19.93;33.31;101200.66;4475928;31;32216;-87
2022/05/19 06:39:17;;;;;;;3.97;2.28;;;;;;;20.21;32.47;101194.47;4498138;31;34168;-92
2022/05/19 06:42:14;;;;;;;5.32;2.10;;;;;;;20.24;32.15;101191.59;4359640;32;32504;-91
2022/05/19 06:45:06;;;;;;;7.10;2.40;;;;;;;20.20;30.45;101190.91;4384079;32;33921;-91
2022/05/19 06:47:58;;;;;;;4.07;1.62;;;;;;;20.29;30.90;101197.53;4342301;33;32678;-91
2022/05/19 06:50:37;;;;;;;6.65;2.15;;;;;;;20.58;29.78;101193.06;4360730;32;32728;-92
2022/05/19 06:53:30;;;;;;;4.80;2.30;;;;;;;20.45;29.87;101194.75;4355728;32;33504;-91
2022/05/19 06:55:58;;;;;;;9.18;1.50;;;;;;;20.45;30.92;101197.44;4337435;33;34196;-91
2022/05/19 06:58:32;;;;;;;5.60;1.73;;;;;;;20.62;28.37;101194.59;4334225;33;33200;-91
2022/05/19 07:01:15;;;;;;;4.53;1.40;;;;;;;20.80;27.84;101200.63;4344711;32;32535;-91
2022/05/19 07:03:56;;;;;;;4.30;1.48;;;;;;;21.16;26.51;101193.78;4322803;33;33638;-91
2022/05/19 07:06:36;;;;;;;2.50;1.40;;;;;;;21.22;27.62;101193.37;4374403;32;33646;-92
2022/05/19 07:09:18;;;;;;;5.22;1.25;;;;;;;21.44;26.54;101196.41;4355979;32;31904;-84
2022/05/19 07:11:50;;;;;;;3.55;1.40;;;;;;;21.08;26.46;101194.31;4362223;32;33855;-84
2022/05/19 07:14:19;;;;;;;2.78;1.17;;;;;;;21.12;25.50;101193.13;4358830;32;33613;-84
2022/05/19 07:16:48;;;;;;;2.95;1.15;;;;;;;20.95;24.45;101193.37;4365287;32;33330;-84
2022/05/19 07:22:07;;;;;;;1.42;1.00;;;;;;;21.45;24.46;101194.56;4352298;32;33911;-84
2022/05/19 07:24:35;;;;;;;1.87;0.98;;;;;;;21.89;24.88;101188.03;4349392;32;35971;-84
2022/05/19 07:27:04;;;;;;;1.52;0.90;;;;;;;22.24;23.03;101191.81;4363661;32;34388;-84
2022/05/19 07:29:33;;;;;;;1.90;1.25;;;;;;;22.64;24.54;101188.97;4351368;32;32288;-84
2022/05/19 07:32:02;;;;;;;1.40;0.75;;;;;;;22.59;23.79;101193.81;4366338;32;34319;-84
2022/05/19 07:34:32;;;;;;;2.83;1.17;;;;;;;22.85;20.76;101193.78;4351082;32;33174;-84
2022/05/19 07:37:00;;;;;;;3.50;0.90;;;;;;;23.02;22.38;101189.87;4350785;32;34328;-84
2022/05/19 07:39:28;;;;;;;1.10;0.80;;;;;;;23.04;22.64;101186.09;4365207;32;33830;-85
2022/05/19 07:41:57;;;;;;;0.93;0.60;;;;;;;22.47;20.74;101189.34;4371024;32;34077;-84
2022/05/19 07:44:28;;;;;;;1.42;0.70;;;;;;;22.54;20.22;101185.22;4350482;32;34426;-85
2022/05/19 07:46:57;;;;;;;1.10;0.70;;;;;;;23.12;21.88;101181.00;4351630;32;33306;-84
2022/05/19 07:49:25;;;;;;;2.00;1.48;;;;;;;23.12;20.53;101181.00;4351033;32;33053;-84
2022/05/19 07:51:54;;;;;;;1.52;1.00;;;;;;;23.33;20.29;101181.22;4352114;32;33940;-84
2022/05/19 07:54:26;;;;;;;7.35;1.10;;;;;;;22.94;21.44;101176.97;4358556;32;33645;-84
2022/05/19 07:56:56;;;;;;;9.27;0.98;;;;;;;22.89;20.50;101188.09;4359334;32;32944;-84
2022/05/19 07:59:24;;;;;;;3.42;1.33;;;;;;;23.18;21.18;101175.16;4358736;32;33379;-84
2022/05/19 08:01:54;;;;;;;2.65;1.02;;;;;;;24.13;22.74;101175.13;4358490;32;33798;-85
2022/05/19 08:04:24;;;;;;;1.73;0.85;;;;;;;23.16;22.43;101179.78;4358827;32;32674;-84
2022/05/19 08:06:52;;;;;;;3.53;0.98;;;;;;;22.74;21.04;101184.66;4357896;32;32349;-84
2022/05/19 08:15:34;;;;;;;3.45;0.90;;;;;;;22.99;22.03;101178.34;4378085;32;33594;-83
2022/05/19 08:18:13;;;;;;;1.75;0.60;;;;;;;23.67;20.12;101176.84;4381244;32;32715;-84
2022/05/19 08:20:44;;;;;;;6.53;1.08;;;;;;;24.43;21.31;101174.56;4374586;32;32314;-84
2022/05/19 08:23:35;;;;;;;1.15;0.60;;;;;;;23.58;20.78;101174.81;4388454;32;32535;-84
2022/05/19 08:26:04;;;;;;;3.78;1.42;;;;;;;23.74;19.28;101177.25;4399988;32;32821;-84
2022/05/19 08:28:32;;;;;;;1.40;0.88;;;;;;;23.72;19.82;101174.66;4375950;32;33995;-84
2022/05/19 08:31:13;;;;;;;2.75;0.70;;;;;;;24.04;20.09;101176.69;4364402;32;32117;-85
2022/05/19 08:33:44;;;;;;;1.67;0.90;;;;;;;23.86;20.51;101176.28;4363650;32;33072;-84
2022/05/19 08:36:19;;;;;;;1.30;0.82;;;;;;;24.27;20.87;101169.50;4377017;32;32914;-83
2022/05/19 08:38:48;;;;;;;1.55;0.55;;;;;;;24.89;20.82;101166.28;4388397;32;33765;-85
2022/05/19 08:41:27;;;;;;;1.10;0.80;;;;;;;24.87;19.96;101167.38;4387849;32;33550;-84
2022/05/19 08:44:04;;;;;;;0.88;0.52;;;;;;;24.78;20.17;101166.28;4382880;32;32411;-84
2022/05/19 08:46:38;;;;;;;1.48;0.90;;;;;;;25.44;21.09;101161.69;4388385;32;33231;-85
2022/05/19 08:49:14;;;;;;;1.55;1.00;;;;;;;25.23;20.05;101164.38;4388064;32;33090;-84
2022/05/19 08:51:50;;;;;;;1.87;0.60;;;;;;;24.98;21.79;101167.38;4374764;32;33309;-84
2022/05/19 08:54:23;;;;;;;1.37;0.77;;;;;;;25.14;19.69;101157.03;4375922;32;34551;-84
2022/05/19 08:57:09;;;;;;;2.25;0.90;;;;;;;25.05;19.83;101165.87;4388133;32;34116;-84
2022/05/19 08:59:53;;;;;;;3.37;0.60;;;;;;;25.81;20.88;101153.16;4350711;32;34744;-84
2022/05/19 09:02:50;;;;;;;1.80;0.90;;;;;;;25.50;19.15;101152.22;4376692;32;33822;-85
2022/05/19 09:05:47;;;;;;;1.70;0.88;;;;;;;24.57;20.43;101160.81;4374484;32;32874;-84
2022/05/19 09:08:30;;;;;;;1.83;0.60;;;;;;;25.17;19.70;101159.47;4375687;32;34366;-84
2022/05/19 09:11:26;;;;;;;1.33;0.62;;;;;;;25.00;20.43;101152.72;4387740;32;33497;-84
2022/05/19 09:14:10;;;;;;;3.78;0.60;;;;;;;24.81;21.19;101157.09;4381556;32;31952;-84
2022/05/19 09:16:39;;;;;;;4.68;0.95;;;;;;;25.15;19.79;101150.62;4400306;32;34306;-84
2022/05/19 09:19:21;;;;;;;4.32;0.62;;;;;;;25.60;19.44;101136.06;4375779;32;34040;-84
2022/05/19 09:22:07;;;;;;;1.42;0.68;;;;;;;25.02;19.57;101139.97;4375443;32;32671;-84
2022/05/19 09:24:35;;;;;;;5.15;0.60;;;;;;;25.27;19.80;101146.06;4387785;32;32925;-84
2022/05/19 09:27:06;;;;;;;1.85;0.70;;;;;;;25.63;19.94;101136.62;4372883;32;32299;-84
2022/05/19 09:29:37;;;;;;;2.95;0.77;;;;;;;25.45;20.67;101136.38;4370135;32;33327;-84
2022/05/19 09:32:16;;;;;;;2.00;0.80;;;;;;;25.44;18.57;101133.78;4385043;32;33577;-84
2022/05/19 09:34:47;;;;;;;0.98;0.45;;;;;;;25.77;20.70;101139.03;4384809;32;32306;-84
2022/05/19 09:37:17;;;;;;;1.15;0.68;;;;;;;25.55;17.74;101141.87;4382364;32;34093;-84
2022/05/19 09:39:53;;;;;;;0.75;0.40;;;;;;;26.07;18.84;101131.13;4370297;32;34376;-84
2022/05/19 09:42:30;;;;;;;1.95;0.70;;;;;;;26.47;18.65;101139.28;4385722;32;34276;-84
2022/05/19 09:45:03;;;;;;;0.45;0.32;;;;;;;26.19;17.70;101141.69;4382272;32;34097;-84
2022/05/19 09:47:37;;;;;;;3.10;0.68;;;;;;;26.42;19.07;101130.69;4383840;32;32082;-84
2022/05/19 09:50:27;;;;;;;0.70;0.50;;;;;;;25.70;18.57;101127.03;4376223;32;33479;-84
2022/05/19 09:53:06;;;;;;;0.85;0.60;;;;;;;25.65;19.42;101125.69;4385741;32;33179;-85
2022/05/19 09:55:41;;;;;;;0.77;0.40;;;;;;;25.21;18.60;101120.41;4385239;32;32776;-85
2022/05/19 09:58:15;;;;;;;5.43;0.70;;;;;;;26.08;17.57;101112.03;4379884;32;33323;-84
2022/05/19 10:00:53;;;;;;;0.45;0.45;;;;;;;26.25;19.92;101110.50;4384471;32;33038;-84
2022/05/19 10:03:38;;;;;;;1.40;0.93;;;;;;;26.17;18.31;101111.22;4370640;32;35351;-85
2022/05/19 10:06:16;;;;;;;1.50;0.73;;;;;;;26.11;18.34;101116.28;4385304;32;32300;-84
2022/05/19 10:08:45;;;;;;;0.70;0.62;;;;;;;26.44;18.62;101109.75;4382715;32;32336;-84
2022/05/19 10:11:14;;;;;;;2.05;0.40;;;;;;;26.72;17.43;101100.84;4383892;32;34535;-84
2022/05/19 10:13:55;;;;;;;3.40;0.80;;;;;;;27.25;18.31;101100.50;4382808;32;34426;-84
2022/05/19 10:16:52;;;;;;;5.43;0.80;;;;;;;26.44;17.53;101107.91;4366295;32;33273;-85
2022/05/19 10:19:30;;;;;;;4.22;0.60;;;;;;;26.13;19.19;101107.06;4384613;32;33568;-84
2022/05/19 10:22:25;;;;;;;3.00;0.45;;;;;;;26.07;17.29;101102.19;4371755;32;33185;-84
2022/05/19 10:25:12;;;;;;;1.73;0.40;;;;;;;27.10;20.83;101088.37;4382931;32;32932;-85
2022/05/19 10:31:07;;;;;;;2.72;0.88;;;;;;;26.43;18.35;101095.38;4373022;32;34478;-85
2022/05/19 10:33:49;;;;;;;1.58;0.60;;;;;;;26.64;17.30;101081.75;4375484;32;32699;-84
2022/05/19 10:36:39;;;;;;;1.05;0.50;;;;;;;26.62;17.56;101083.72;4385056;32;34316;-85
2022/05/19 10:39:20;;;;;;;15.90;1.30;;;;;;;26.64;18.89;101076.31;4382445;32;33399;-86
2022/05/19 10:42:11;;;;;;;2.15;0.40;;;;;;;27.46;16.55;101061.50;4398388;32;32454;-86
2022/05/19 10:45:16;;;;;;;0.75;0.52;;;;;;;26.95;15.81;101066.22;4396663;32;31114;-86
2022/05/19 10:48:17;;;;;;;1.98;1.02;;;;;;;27.67;18.60;101059.44;4397146;32;31936;-86
2022/05/19 10:51:09;;;;;;;4.43;0.70;;;;;;;27.49;15.10;101056.66;4374226;32;34049;-86
2022/05/19 10:53:44;;;;;;;1.73;0.52;;;;;;;27.14;17.23;101057.25;4395228;32;33461;-86
2022/05/19 10:56:26;;;;;;;3.75;0.47;;;;;;;26.91;16.18;101044.97;4384971;32;33188;-86
2022/05/19 10:59:34;;;;;;;3.15;0.50;;;;;;;26.91;15.94;101050.37;4385175;32;33910;-86
2022/05/19 11:02:19;;;;;;;1.40;0.50;;;;;;;26.88;17.13;101056.09;4385846;32;33050;-86
2022/05/19 11:05:06;;;;;;;4.43;0.50;;;;;;;27.60;17.03;101039.34;4373088;32;34689;-86
2022/05/19 11:08:08;;;;;;;2.10;0.50;;;;;;;28.12;18.01;101028.88;4397699;32;33007;-85
2022/05/19 11:10:56;;;;;;;1.20;0.70;;;;;;;26.96;16.89;101037.25;4372953;32;32642;-85
2022/05/19 11:13:44;;;;;;;1.92;0.40;;;;;;;27.07;17.84;101023.56;4385255;32;31087;-85
2022/05/19 11:16:23;;;;;;;0.73;0.50;;;;;;;27.30;16.05;101024.16;4386884;32;32823;-86
2022/05/19 11:19:00;;;;;;;1.10;0.60;;;;;;;27.54;17.46;101018.25;4382860;32;32567;-85
2022/05/19 11:21:44;;;;;;;2.58;0.60;;;;;;;27.63;16.76;101020.06;4371358;32;34668;-86
2022/05/19 11:24:23;;;;;;;1.05;0.62;;;;;;;27.46;15.48;101013.53;4384696;32;32047;-84
2022/05/19 11:27:34;;;;;;;1.00;0.68;;;;;;;27.29;18.16;101009.72;4368900;32;33494;-85
2022/05/19 11:30:15;;;;;;;0.68;0.50;;;;;;;28.03;17.27;101008.91;4325494;32;33079;-84
2022/05/19 11:32:49;;;;;;;1.55;0.45;;;;;;;28.43;15.85;100990.56;4337154;32;32750;-85
2022/05/19 11:35:30;;;;;;;0.50;0.40;;;;;;;27.95;19.74;100991.66;4361527;32;32868;-85
2022/05/19 11:38:15;;;;;;;0.55;0.50;;;;;;;28.19;16.66;100993.81;4381982;32;31723;-85
2022/05/19 11:40:49;;;;;;;1.17;0.40;;;;;;;27.76;15.19;100993.47;4371987;32;33400;-85
2022/05/19 11:43:27;;;;;;;3.40;0.62;;;;;;;27.50;15.33;100992.41;4386866;32;33030;-85
2022/05/19 11:46:38;;;;;;;0.65;0.40;;;;;;;27.94;18.50;100989.97;4395935;32;32429;-85
2022/05/19 11:55:13;;;;;;;0.75;0.68;;;;;;;28.23;16.29;100987.94;4373779;32;33569;-84
2022/05/19 11:58:12;;;;;;;2.92;0.55;;;;;;;28.49;17.29;100970.94;4372309;32;34072;-85
2022/05/19 12:00:55;;;;;;;1.20;0.40;;;;;;;28.86;15.81;100973.47;4383857;32;32753;-85
2022/05/19 12:03:51;;;;;;;2.45;0.50;;;;;;;27.86;15.52;100971.69;4382709;32;31878;-84
2022/05/19 12:06:27;;;;;;;0.50;0.50;;;;;;;27.87;15.09;100965.28;4384677;32;32698;-84
2022/05/19 12:08:56;;;;;;;0.77;0.55;;;;;;;28.07;14.66;100957.91;4381024;32;32010;-85
2022/05/19 12:11:33;;;;;;;2.75;0.75;;;;;;;28.21;15.41;100960.09;4373565;32;33658;-85
2022/05/19 12:14:27;;;;;;;0.60;0.45;;;;;;;28.17;17.23;100953.25;4380352;32;33638;-84
2022/05/19 12:17:00;;;;;;;3.92;0.60;;;;;;;29.03;17.93;100950.03;4385497;32;33620;-84
2022/05/19 12:19:30;;;;;;;0.70;0.50;;;;;;;28.54;15.62;100952.31;4383983;32;33049;-85
2022/05/19 12:22:00;;;;;;;5.97;0.40;;;;;;;28.19;16.16;100948.50;4384403;32;33935;-92
2022/05/19 12:25:09;;;;;;;3.50;0.50;;;;;;;28.24;15.68;100948.91;4381214;32;32646;-92
2022/05/19 12:27:54;;;;;;;5.10;0.50;;;;;;;28.13;16.28;100942.84;4358370;32;33585;-91
2022/05/19 12:34:02;;;;;;;0.90;0.50;;;;;;;28.43;14.11;100936.22;4375482;32;32734;-91